Juneau International Airport
PAJN : now visible

Airfield :











YOU CAN JOIN US ON...

 
LOGIN :

Register | Disclaimer

   EN    FR    IT 

 









Legend :    VFR   Marginal VFR   IFR   Intensive IFR   Very Intensive IFR
Visi :
Ceiling :
>= 8 km
>= 3000ft
5 to 8 km
1000 to 3000 ft
1500m to 5 km
500 to 1000 ft
800 to 1500m
200 to 500 ft
< 800m
< 200 ft
Symbols :   Thunderstorms  Fog  Heavy snow  Heavy precipitations  Wind > 20 kt







- Airport Elevation : 21 ft
- IATA code : JNU


PAJN - Juneau International

CURRENT METAR :
  • 211123Z 07008KT 10SM FEW008 BKN033 OVC045 13/12 A2943 RMK AO2 RAE15 P0004 T01330122 $

EXPIRED METARs :
  • 211053Z 07008KT 5SM +RA BR FEW008 BKN029 OVC041 13/12 A2944 RMK AO2 RAB0954 SLP968 P0008 T01280122 $
  • 211026Z 08009KT 6SM -RA BR FEW008 OVC035 13/12 A2944 RMK AO2 RAB0954 P0004 T01280122 $
  • 210953Z 09005KT 10SM FEW019 BKN042 OVC080 13/12 A2944 RMK AO2 RAE18 SLP969 P0003 T01330117 $
  • 210853Z 12018G27KT 10SM -RA FEW030 BKN049 OVC065 13/12 A2943 RMK PK WND 11028/0756 RAE06B26 SLP964 P0000 60005 T01330117 401330111 53009 $ VIA AUTODIAL

TAF PAJN
Valid from the 21 at 06:00 until the 22 at 06:00 UTC


210533Z 2106/2206 11028G38KT 6SM -RA BR FEW010 OVC035 WS020/15045KT
TEMPO 2106/2108 3SM RA BR
FM210800 11018G28KT 3SM -RA BR FEW008 OVC035 WS015/16035KT
FM211500 11011KT P6SM -SHRA FEW007 OVC035
No reported NOTAMs for that airfield.



MET'MAP, your aeronautical weather chart ! - Copyright ORBIFLY December 2007 - Disclaimer

ORBIFLY MET'MAP TEAM :

Programming & Development : Alexandra Zaïnal
Concept & Development : Baudouin d'Aumeries
Co-Development & Prog : Marc-Olivier Méhu
Technical & hardware support : Manuel Goepfert

Contact : metmap@orbifly.com




SOURCES & CREDITS :

   NOAA       Earth
Advisory